Time;durP1;ratioP1;P1;durP2;ratioP2;P2;SDS_P1;SDS_P2;PMS_P1;PMS_P2;Temp;Humidity;BMP_temperature;BMP_pressure;BME280_temperature;BME280_humidity;BME280_pressure;Samples;Min_cycle;Max_cycle;Signal;HPM_P1;HPM_P2
2023/10/24 00:00:12;;;;;;;13.88;8.25;;;;;;;11.94;100.00;100128.31;5034960;28;20029;-94
2023/10/24 00:02:38;;;;;;;16.85;8.05;;;;;;;12.00;100.00;100143.28;5036656;28;20053;-93
2023/10/24 00:05:04;;;;;;;15.40;8.57;;;;;;;12.02;100.00;100139.72;5018528;28;20415;-93
2023/10/24 00:07:29;;;;;;;13.55;8.40;;;;;;;12.07;100.00;100150.28;5036508;28;20041;-94
2023/10/24 00:09:55;;;;;;;13.32;8.55;;;;;;;12.02;100.00;100144.16;5036448;28;20029;-94
2023/10/24 00:12:20;;;;;;;13.40;7.82;;;;;;;11.92;100.00;100127.44;5036360;28;20036;-93
2023/10/24 00:14:46;;;;;;;10.60;7.30;;;;;;;11.97;100.00;100130.06;5035846;28;20057;-93
2023/10/24 00:17:11;;;;;;;10.73;7.68;;;;;;;11.87;100.00;100118.66;5034798;28;20067;-93
2023/10/24 00:19:36;;;;;;;13.43;8.15;;;;;;;11.98;100.00;100140.63;5036075;28;20125;-93
2023/10/24 00:22:02;;;;;;;11.77;6.85;;;;;;;12.00;100.00;100145.94;5035911;28;20032;-94
2023/10/24 00:24:27;;;;;;;11.30;6.88;;;;;;;11.98;100.00;100143.28;5035824;28;20037;-93
2023/10/24 00:26:54;;;;;;;12.15;6.60;;;;;;;11.95;100.00;100131.88;5035699;28;20355;-92
2023/10/24 00:29:19;;;;;;;10.35;6.32;;;;;;;11.96;100.00;100134.50;5034488;28;20575;-93
2023/10/24 00:31:45;;;;;;;10.18;6.18;;;;;;;12.02;100.00;100138.84;5035882;28;20116;-93
2023/10/24 00:34:12;;;;;;;11.95;6.82;;;;;;;12.03;100.00;100133.56;5035411;28;20029;-94
2023/10/24 00:36:39;;;;;;;13.18;6.50;;;;;;;12.01;100.00;100134.47;5035850;28;20041;-92
2023/10/24 00:39:05;;;;;;;9.18;5.78;;;;;;;12.01;100.00;100134.47;5035691;28;20040;-94
2023/10/24 00:41:31;;;;;;;11.10;6.30;;;;;;;11.97;100.00;100130.06;5035914;28;20120;-88
2023/10/24 00:43:56;;;;;;;12.25;6.25;;;;;;;11.98;100.00;100135.34;5035576;28;20037;-93
2023/10/24 00:46:22;;;;;;;8.10;5.40;;;;;;;11.94;100.00;100120.38;5001837;28;20508;-93
2023/10/24 00:48:48;;;;;;;7.20;5.68;;;;;;;12.00;100.00;100144.16;5035800;28;20474;-94
2023/10/24 00:51:13;;;;;;;12.88;5.88;;;;;;;11.85;100.00;100119.56;5035157;28;20079;-93
2023/10/24 00:53:39;;;;;;;8.90;5.50;;;;;;;11.97;100.00;100145.94;5035354;28;20108;-92
2023/10/24 00:56:06;;;;;;;9.35;5.80;;;;;;;11.92;100.00;100145.09;5035116;28;20030;-94
2023/10/24 00:58:34;;;;;;;7.10;5.35;;;;;;;11.95;100.00;100145.09;5034893;28;20117;-93
2023/10/24 01:01:00;;;;;;;8.77;5.45;;;;;;;11.92;100.00;100147.75;5034984;28;20029;-93
2023/10/24 01:03:26;;;;;;;10.13;5.03;;;;;;;11.95;100.00;100147.75;5035331;28;20056;-94
2023/10/24 01:05:52;;;;;;;9.20;5.07;;;;;;;11.85;100.00;100133.66;5035248;28;20034;-94
2023/10/24 01:08:18;;;;;;;9.13;5.15;;;;;;;11.67;100.00;100113.44;5033941;28;20112;-94
2023/10/24 01:10:43;;;;;;;10.75;5.00;;;;;;;11.86;100.00;100132.78;5033721;28;20489;-93
2023/10/24 01:13:09;;;;;;;8.30;5.05;;;;;;;11.87;100.00;100137.19;5034947;28;20029;-96
2023/10/24 01:15:34;;;;;;;7.25;4.32;;;;;;;11.89;100.00;100143.34;5032969;28;20050;-93
2023/10/24 01:18:00;;;;;;;7.10;4.45;;;;;;;11.86;100.00;100147.78;5034816;28;20029;-95
2023/10/24 01:20:25;;;;;;;11.38;4.40;;;;;;;11.82;100.00;100128.38;5033641;28;20534;-95
2023/10/24 01:22:50;;;;;;;6.60;4.32;;;;;;;11.66;100.00;100113.47;5034803;28;20099;-94
2023/10/24 01:25:16;;;;;;;8.27;4.25;;;;;;;11.83;100.00;100124.00;5034363;28;20033;-94
2023/10/24 01:27:43;;;;;;;7.20;4.43;;;;;;;11.89;100.00;100151.28;5017109;28;20121;-94
2023/10/24 01:30:10;;;;;;;6.57;4.28;;;;;;;11.88;100.00;100138.94;5033829;28;20041;-94
2023/10/24 01:32:36;;;;;;;8.10;4.22;;;;;;;11.88;100.00;100138.06;5035216;28;20108;-92
2023/10/24 01:35:01;;;;;;;9.80;4.10;;;;;;;11.82;100.00;100119.53;5016933;28;20042;-94
2023/10/24 01:37:26;;;;;;;6.55;4.20;;;;;;;11.81;100.00;100139.81;5033582;28;20030;-94
2023/10/24 01:39:52;;;;;;;6.78;3.92;;;;;;;11.73;100.00;100126.66;5016044;28;20045;-94
2023/10/24 01:42:17;;;;;;;5.35;4.10;;;;;;;11.83;100.00;100146.03;5033009;28;20046;-94
2023/10/24 01:44:45;;;;;;;5.20;3.88;;;;;;;11.78;100.00;100145.16;5033368;28;20084;-94
2023/10/24 01:47:11;;;;;;;5.35;3.95;;;;;;;11.79;100.00;100145.13;5033491;28;20099;-94
2023/10/24 01:49:36;;;;;;;6.78;4.28;;;;;;;11.70;100.00;100125.78;5034234;28;20418;-93
2023/10/24 01:52:02;;;;;;;5.82;4.10;;;;;;;11.78;100.00;100138.09;5033143;28;20037;-95
2023/10/24 01:54:27;;;;;;;6.68;4.00;;;;;;;11.71;100.00;100132.84;5034090;28;20143;-94
2023/10/24 01:56:52;;;;;;;6.43;3.97;;;;;;;11.72;100.00;100134.59;5034651;28;20167;-94
2023/10/24 01:59:18;;;;;;;6.53;4.03;;;;;;;11.72;100.00;100138.09;5018384;28;20044;-95
2023/10/24 02:01:43;;;;;;;7.80;3.92;;;;;;;11.64;100.00;100120.50;5034244;28;20037;-94
2023/10/24 02:04:09;;;;;;;7.13;3.92;;;;;;;11.72;100.00;100134.59;5016573;28;20505;-92
2023/10/24 02:06:34;;;;;;;5.30;3.83;;;;;;;11.64;100.00;100125.81;5034465;28;20038;-94
2023/10/24 02:08:59;;;;;;;5.40;3.70;;;;;;;11.68;100.00;100128.44;5034265;28;20454;-94
2023/10/24 02:11:25;;;;;;;5.10;3.95;;;;;;;11.63;100.00;100105.53;5032996;28;20037;-95
2023/10/24 02:13:50;;;;;;;6.93;4.05;;;;;;;11.68;100.00;100135.50;5033879;28;20026;-95
2023/10/24 02:16:15;;;;;;;5.43;3.83;;;;;;;11.60;100.00;100127.59;5033507;28;20058;-95
2023/10/24 02:18:41;;;;;;;6.05;3.80;;;;;;;11.58;100.00;100128.50;5033928;28;20382;-96
2023/10/24 02:21:07;;;;;;;7.30;3.92;;;;;;;11.56;100.00;100122.31;5034141;28;20026;-94
2023/10/24 02:23:33;;;;;;;5.95;3.80;;;;;;;11.60;100.00;100119.66;5034049;28;20034;-93
2023/10/24 02:25:58;;;;;;;5.95;3.92;;;;;;;11.52;100.00;100105.59;5033849;28;20044;-94
2023/10/24 02:28:24;;;;;;;7.53;4.03;;;;;;;11.60;100.00;100126.72;5032818;28;20029;-93
2023/10/24 02:30:49;;;;;;;8.75;4.40;;;;;;;11.46;100.00;100114.44;5032583;28;20044;-94
2023/10/24 02:33:14;;;;;;;7.07;3.80;;;;;;;11.62;100.00;100146.13;5034073;28;20042;-95
2023/10/24 02:35:40;;;;;;;5.60;3.90;;;;;;;11.55;100.00;100137.31;5033710;28;20068;-94
2023/10/24 02:38:06;;;;;;;5.35;3.88;;;;;;;11.49;100.00;100134.72;5032488;28;20496;-95
2023/10/24 02:40:31;;;;;;;6.13;3.90;;;;;;;11.55;100.00;100150.53;5032396;28;20119;-94
2023/10/24 02:42:57;;;;;;;8.23;4.28;;;;;;;11.51;100.00;100140.88;5033532;28;20065;-94
2023/10/24 02:45:23;;;;;;;7.07;3.80;;;;;;;11.49;100.00;100146.16;5033615;28;20090;-94
2023/10/24 02:47:49;;;;;;;5.53;3.83;;;;;;;11.44;100.00;100145.31;5033615;28;20072;-94
2023/10/24 02:50:14;;;;;;;8.75;3.65;;;;;;;11.47;100.00;100139.13;5032861;28;20441;-93
2023/10/24 02:52:40;;;;;;;5.35;3.83;;;;;;;11.25;100.00;100118.03;5032068;28;20112;-93
2023/10/24 02:55:06;;;;;;;6.28;3.90;;;;;;;11.48;100.00;100160.28;5033204;28;20025;-95
2023/10/24 02:57:31;;;;;;;6.97;4.22;;;;;;;11.48;100.00;100160.28;5033445;28;20116;-95
2023/10/24 02:59:57;;;;;;;5.45;3.92;;;;;;;11.46;100.00;100177.03;5033193;28;20125;-94
2023/10/24 03:02:22;;;;;;;5.55;4.30;;;;;;;11.39;100.00;100154.13;5032279;28;20087;-94
2023/10/24 03:04:48;;;;;;;6.05;4.00;;;;;;;11.48;100.00;100167.34;5033551;28;20472;-93
2023/10/24 03:07:13;;;;;;;5.75;4.07;;;;;;;11.48;100.00;100167.34;5033608;28;20033;-93
2023/10/24 03:09:38;;;;;;;7.45;3.97;;;;;;;11.39;100.00;100149.75;5031900;28;20029;-93
2023/10/24 03:12:09;;;;;;;5.70;4.15;;;;;;;11.35;100.00;100144.44;5033544;28;20050;-93
2023/10/24 03:14:34;;;;;;;6.43;4.70;;;;;;;11.34;100.00;100154.16;5031976;28;20068;-87
2023/10/24 03:17:00;;;;;;;5.72;4.65;;;;;;;11.35;100.00;100158.59;5033651;28;20057;-94
2023/10/24 03:19:27;;;;;;;7.15;4.53;;;;;;;11.33;100.00;100159.47;5032103;28;20466;-95
2023/10/24 03:21:52;;;;;;;6.28;4.60;;;;;;;11.35;100.00;100155.94;5033199;28;20039;-95
2023/10/24 03:24:18;;;;;;;6.18;4.50;;;;;;;11.41;100.00;100171.78;5033374;28;20041;-92
2023/10/24 03:26:43;;;;;;;6.88;4.65;;;;;;;11.35;100.00;100163.88;5032284;28;20025;-94
2023/10/24 03:29:09;;;;;;;7.05;4.55;;;;;;;11.36;100.00;100162.09;5031900;28;20458;-94
2023/10/24 03:31:35;;;;;;;7.28;5.00;;;;;;;11.39;100.00;100172.66;5033000;28;20518;-94
2023/10/24 03:34:01;;;;;;;8.63;4.70;;;;;;;11.23;100.00;100156.84;5032504;28;20044;-93
2023/10/24 03:36:26;;;;;;;6.93;4.82;;;;;;;11.32;100.00;100171.81;5031602;28;20470;-94
2023/10/24 03:38:52;;;;;;;6.25;4.65;;;;;;;11.27;100.00;100161.25;5031983;28;20038;-93
2023/10/24 03:41:17;;;;;;;6.32;4.30;;;;;;;11.36;100.00;100162.09;5040851;28;20446;-94
2023/10/24 03:43:48;;;;;;;6.78;4.25;;;;;;;11.34;100.00;100167.38;5042313;28;20089;-93
2023/10/24 03:46:14;;;;;;;5.25;4.28;;;;;;;11.25;100.00;100147.13;5046263;28;20079;-95
2023/10/24 03:48:40;;;;;;;7.15;4.90;;;;;;;11.25;100.00;100157.72;5049373;28;20067;-93
2023/10/24 03:51:05;;;;;;;6.85;4.57;;;;;;;11.34;100.00;100170.03;5046665;28;20465;-93
2023/10/24 03:53:31;;;;;;;6.90;4.40;;;;;;;11.31;100.00;100164.78;5046936;28;20038;-94
2023/10/24 03:55:58;;;;;;;7.82;4.50;;;;;;;11.35;100.00;100169.16;5045573;28;20034;-93
2023/10/24 03:58:24;;;;;;;6.45;4.63;;;;;;;11.20;100.00;100163.91;5044505;28;20026;-93
2023/10/24 04:00:50;;;;;;;5.85;4.60;;;;;;;11.32;100.00;100182.38;5041031;28;20032;-94
2023/10/24 04:03:15;;;;;;;6.18;4.40;;;;;;;11.32;100.00;100182.38;5043421;28;20504;-94
2023/10/24 04:05:43;;;;;;;6.70;4.65;;;;;;;11.29;100.00;100179.75;5029011;28;20048;-93
2023/10/24 04:08:09;;;;;;;6.60;4.82;;;;;;;11.28;100.00;100180.63;5044365;28;20064;-94
2023/10/24 04:10:34;;;;;;;9.20;4.90;;;;;;;11.15;100.00;100156.00;5028219;28;20371;-93
2023/10/24 04:13:00;;;;;;;5.95;4.65;;;;;;;11.20;100.00;100172.72;5047415;28;20103;-94
2023/10/24 04:15:27;;;;;;;6.47;4.35;;;;;;;11.18;100.00;100158.63;5030793;28;20099;-92
2023/10/24 04:17:53;;;;;;;6.00;4.60;;;;;;;11.26;100.00;100177.09;5047153;28;20026;-88
2023/10/24 04:20:18;;;;;;;6.45;4.32;;;;;;;11.21;100.00;100163.00;5045785;28;20115;-93
2023/10/24 04:22:43;;;;;;;5.90;4.65;;;;;;;11.17;100.00;100162.13;5042420;28;20040;-93
2023/10/24 04:25:09;;;;;;;6.32;4.53;;;;;;;11.17;100.00;100143.63;5045094;28;20041;-93
2023/10/24 04:27:34;;;;;;;6.70;4.60;;;;;;;11.17;100.00;100143.63;5046329;28;20085;-92
2023/10/24 04:30:00;;;;;;;6.30;4.82;;;;;;;11.25;100.00;100148.91;5047076;28;20030;-93
2023/10/24 04:32:25;;;;;;;6.07;4.45;;;;;;;10.99;100.00;100093.47;5048844;28;20053;-92
2023/10/24 04:34:51;;;;;;;5.93;4.60;;;;;;;11.19;100.00;100131.31;5050325;28;20354;-93
2023/10/24 04:37:18;;;;;;;6.80;4.45;;;;;;;11.16;100.00;100122.50;5045587;28;20067;-93
2023/10/24 04:39:44;;;;;;;6.15;4.68;;;;;;;11.25;100.00;100143.59;5045698;28;20033;-93
2023/10/24 04:42:10;;;;;;;6.38;5.00;;;;;;;11.13;100.00;100125.13;5046445;28;20427;-92
2023/10/24 04:44:35;;;;;;;7.18;4.90;;;;;;;11.17;100.00;100127.75;5046976;28;20152;-92
2023/10/24 04:47:00;;;;;;;6.78;4.38;;;;;;;11.20;100.00;100148.03;5049517;28;20030;-91
2023/10/24 04:49:26;;;;;;;6.70;4.88;;;;;;;11.11;100.00;100141.00;5052181;28;20017;-92
2023/10/24 04:51:52;;;;;;;7.32;4.97;;;;;;;11.17;100.00;100150.69;5051539;28;20068;-90
2023/10/24 04:54:17;;;;;;;8.35;4.75;;;;;;;10.92;100.00;100105.84;5047155;28;20132;-92
2023/10/24 04:56:43;;;;;;;6.28;4.95;;;;;;;11.12;100.00;100147.19;5042768;28;20111;-93
2023/10/24 04:59:08;;;;;;;6.35;4.70;;;;;;;11.15;100.00;100148.06;5046789;28;20064;-94
2023/10/24 05:01:37;;;;;;;10.40;5.65;;;;;;;11.14;100.00;100154.25;5044030;28;20059;-93
2023/10/24 05:04:06;;;;;;;6.25;4.78;;;;;;;11.05;100.00;100141.03;5035262;28;20029;-94
2023/10/24 05:06:32;;;;;;;6.80;4.70;;;;;;;10.96;100.00;100117.25;5038925;28;20030;-93
2023/10/24 05:08:57;;;;;;;5.78;4.70;;;;;;;11.12;100.00;100150.69;5041808;28;20025;-93
2023/10/24 05:11:22;;;;;;;5.78;4.60;;;;;;;11.08;100.00;100142.78;5042392;28;20042;-93
2023/10/24 05:13:49;;;;;;;5.85;4.88;;;;;;;11.13;100.00;100154.22;5033279;28;20033;-94
2023/10/24 05:16:14;;;;;;;6.63;4.65;;;;;;;11.12;100.00;100157.75;5017262;28;20081;-93
2023/10/24 05:18:40;;;;;;;6.28;4.70;;;;;;;11.09;100.00;100144.53;5017550;28;20057;-93
2023/10/24 05:21:08;;;;;;;6.82;4.78;;;;;;;11.09;100.00;100152.47;5035638;28;20025;-93
2023/10/24 05:23:33;;;;;;;6.38;4.80;;;;;;;11.12;100.00;100153.34;5034410;28;20040;-93
2023/10/24 05:25:59;;;;;;;6.80;4.82;;;;;;;11.03;100.00;100148.09;5034457;28;20037;-93
2023/10/24 05:28:24;;;;;;;6.32;4.78;;;;;;;11.06;100.00;100148.09;5035447;28;20057;-93
2023/10/24 05:30:50;;;;;;;4.88;4.15;;;;;;;11.08;100.00;100151.59;5035408;28;20140;-94
2023/10/24 05:33:16;;;;;;;5.50;4.32;;;;;;;11.00;100.00;100135.75;5017474;28;20045;-93
2023/10/24 05:35:48;;;;;;;6.38;4.35;;;;;;;11.06;100.00;100134.88;5035035;28;20083;-92
2023/10/24 05:38:13;;;;;;;5.30;4.07;;;;;;;11.07;100.00;100115.47;5035006;28;20042;-93
2023/10/24 05:40:39;;;;;;;7.63;4.30;;;;;;;11.10;100.00;100120.75;5035294;28;20108;-93
2023/10/24 05:43:06;;;;;;;5.47;4.18;;;;;;;11.08;100.00;100125.16;5036591;28;20056;-93
2023/10/24 05:45:31;;;;;;;5.78;4.32;;;;;;;11.08;100.00;100132.22;5035827;28;20064;-93
2023/10/24 05:47:57;;;;;;;4.85;3.90;;;;;;;10.97;100.00;100116.38;5034148;28;20041;-93
2023/10/24 05:50:22;;;;;;;5.75;4.05;;;;;;;10.94;100.00;100122.56;5035270;28;20465;-94
2023/10/24 05:52:48;;;;;;;10.00;4.07;;;;;;;11.02;100.00;100131.34;5017873;28;20080;-93
2023/10/24 05:55:13;;;;;;;5.30;3.47;;;;;;;11.01;100.00;100134.00;5035576;28;20116;-94
2023/10/24 05:57:39;;;;;;;5.30;3.60;;;;;;;10.94;100.00;100125.19;5036544;28;20041;-94
2023/10/24 06:00:05;;;;;;;5.00;3.78;;;;;;;10.93;100.00;100125.22;5036207;28;20450;-94
2023/10/24 06:02:30;;;;;;;5.65;3.70;;;;;;;11.02;100.00;100144.56;5036059;28;20037;-94
2023/10/24 06:04:56;;;;;;;5.43;3.80;;;;;;;11.01;100.00;100155.16;5036684;28;20045;-94
2023/10/24 06:07:21;;;;;;;6.22;3.40;;;;;;;10.97;100.00;100148.97;5035434;28;20449;-94
2023/10/24 06:09:46;;;;;;;4.90;3.33;;;;;;;10.95;100.00;100156.03;5037711;28;20034;-95
2023/10/24 06:12:13;;;;;;;6.47;3.55;;;;;;;10.95;100.00;100161.31;5040046;28;20048;-93
2023/10/24 06:14:38;;;;;;;4.85;3.53;;;;;;;10.93;100.00;100149.88;5039310;28;20034;-92
2023/10/24 06:17:04;;;;;;;5.22;3.33;;;;;;;10.97;100.00;100145.47;5042083;28;20117;-93
2023/10/24 06:19:29;;;;;;;6.63;3.38;;;;;;;10.91;100.00;100124.31;5024221;28;20113;-93
2023/10/24 06:21:55;;;;;;;4.60;3.35;;;;;;;10.92;100.00;100128.72;5023732;28;20048;-92
2023/10/24 06:24:20;;;;;;;5.15;3.33;;;;;;;10.86;100.00;100129.63;5039128;28;20056;-93
2023/10/24 06:26:46;;;;;;;5.68;3.42;;;;;;;10.88;100.00;100127.88;5038440;28;20424;-93
2023/10/24 06:29:11;;;;;;;4.25;3.33;;;;;;;10.85;100.00;100133.16;5040291;28;20076;-94
2023/10/24 06:31:37;;;;;;;5.30;3.53;;;;;;;10.90;100.00;100146.34;5036616;28;20390;-92
2023/10/24 06:34:03;;;;;;;4.38;3.45;;;;;;;10.87;100.00;100147.22;5034019;28;20034;-92
2023/10/24 06:36:29;;;;;;;4.75;3.80;;;;;;;10.87;100.00;100149.00;5034811;28;20297;-93
2023/10/24 06:38:54;;;;;;;5.95;3.67;;;;;;;10.91;100.00;100158.69;5049590;28;20033;-94
2023/10/24 06:41:20;;;;;;;5.45;3.53;;;;;;;10.66;100.00;100127.03;5034989;28;20026;-95
2023/10/24 06:43:45;;;;;;;6.97;3.60;;;;;;;10.91;100.00;100175.41;5034761;28;20042;-94
2023/10/24 06:46:10;;;;;;;5.32;3.50;;;;;;;10.94;100.00;100178.06;5034092;28;20139;-94
2023/10/24 06:48:36;;;;;;;4.75;3.63;;;;;;;10.70;100.00;100135.78;5034317;28;20100;-93
2023/10/24 06:51:04;;;;;;;4.32;3.50;;;;;;;10.89;100.00;100163.09;5034421;28;20029;-94
2023/10/24 06:53:29;;;;;;;7.57;4.00;;;;;;;10.96;100.00;100163.09;5046867;28;20057;-93
2023/10/24 06:56:01;;;;;;;6.00;4.38;;;;;;;10.93;100.00;100160.44;5032578;28;20037;-92
2023/10/24 06:58:27;;;;;;;5.25;4.30;;;;;;;10.96;100.00;100147.22;5054553;28;20025;-93
2023/10/24 07:00:54;;;;;;;7.10;4.25;;;;;;;11.00;100.00;100163.94;5047535;28;20029;-93
2023/10/24 07:03:20;;;;;;;5.53;4.30;;;;;;;10.96;100.00;100151.63;5053320;28;20038;-92
2023/10/24 07:05:55;;;;;;;5.55;4.20;;;;;;;11.03;100.00;100154.25;5054837;28;20014;-92
2023/10/24 07:08:21;;;;;;;7.50;4.90;;;;;;;10.92;100.00;100134.00;5053862;28;20053;-94
2023/10/24 07:10:47;;;;;;;8.02;4.90;;;;;;;10.96;100.00;100130.47;5053715;28;20050;-92
2023/10/24 07:13:13;;;;;;;6.78;4.80;;;;;;;11.02;100.00;100149.84;5054826;28;20082;-90
2023/10/24 07:15:39;;;;;;;7.20;4.88;;;;;;;10.93;100.00;100125.22;5054261;28;20081;-93
2023/10/24 07:18:05;;;;;;;7.35;4.93;;;;;;;11.04;100.00;100160.41;5055093;28;20022;-92
2023/10/24 07:20:38;;;;;;;8.25;5.18;;;;;;;11.04;100.00;100148.06;5054355;28;20044;-93
2023/10/24 07:23:04;;;;;;;8.18;4.97;;;;;;;10.97;100.00;100130.47;5053239;28;20052;-93
2023/10/24 07:25:30;;;;;;;5.30;4.47;;;;;;;10.98;100.00;100134.88;5054442;28;20093;-92
2023/10/24 07:27:56;;;;;;;6.53;4.90;;;;;;;11.05;100.00;100148.97;5054028;28;20035;-93
2023/10/24 07:30:22;;;;;;;7.65;5.15;;;;;;;11.11;100.00;100154.22;5047630;28;20053;-94
2023/10/24 07:32:48;;;;;;;8.80;5.00;;;;;;;11.13;100.00;100155.09;5020606;28;20044;-93
2023/10/24 07:35:13;;;;;;;9.07;5.00;;;;;;;11.08;100.00;100140.13;5046768;28;20443;-90
2023/10/24 07:37:41;;;;;;;7.38;5.53;;;;;;;11.04;100.00;100137.50;5039041;28;20037;-93
2023/10/24 07:40:07;;;;;;;7.68;5.28;;;;;;;11.21;100.00;100150.66;5041376;28;20103;-93
2023/10/24 07:42:32;;;;;;;9.73;5.30;;;;;;;11.23;100.00;100166.56;5041800;28;20056;-93
2023/10/24 07:45:01;;;;;;;9.32;4.97;;;;;;;11.24;100.00;100166.53;5039296;28;20045;-94
2023/10/24 07:47:27;;;;;;;7.03;5.28;;;;;;;11.21;100.00;100148.03;5038565;28;20109;-94
2023/10/24 07:49:54;;;;;;;8.68;5.50;;;;;;;11.24;100.00;100139.22;5038609;28;20099;-94
2023/10/24 07:52:19;;;;;;;6.65;5.50;;;;;;;11.33;100.00;100154.16;5039363;28;20034;-93
2023/10/24 07:54:45;;;;;;;8.88;5.13;;;;;;;11.37;100.00;100140.94;5036973;28;20034;-93
2023/10/24 07:57:12;;;;;;;8.30;5.30;;;;;;;11.43;100.00;100142.66;5038906;28;20454;-93
2023/10/24 07:59:40;;;;;;;10.13;5.60;;;;;;;11.30;100.00;100123.31;5037501;28;20041;-93
2023/10/24 08:02:05;;;;;;;8.52;5.68;;;;;;;11.39;100.00;100136.53;5022533;28;20331;-96
2023/10/24 08:04:31;;;;;;;9.25;5.55;;;;;;;11.45;100.00;100140.91;5040631;28;20041;-96
2023/10/24 08:06:56;;;;;;;7.18;5.28;;;;;;;11.54;100.00;100147.03;5039824;28;20038;-96
2023/10/24 08:09:22;;;;;;;7.03;5.40;;;;;;;11.58;100.00;100133.78;5039838;28;20076;-94
2023/10/24 08:11:47;;;;;;;8.13;5.32;;;;;;;11.61;100.00;100142.59;5037687;28;20462;-90
2023/10/24 08:14:13;;;;;;;8.02;5.55;;;;;;;11.63;100.00;100145.22;5038399;28;20454;-96
2023/10/24 08:16:39;;;;;;;8.45;5.85;;;;;;;11.74;100.00;100140.78;5037952;28;20050;-94
2023/10/24 08:19:04;;;;;;;9.70;5.95;;;;;;;12.03;100.00;100153.84;5037265;28;20034;-95
2023/10/24 08:21:30;;;;;;;8.25;5.90;;;;;;;12.28;100.00;100136.03;5041140;28;20033;-93
2023/10/24 08:23:56;;;;;;;12.00;6.18;;;;;;;12.63;100.00;100145.44;5036766;28;20061;-94
2023/10/24 08:26:22;;;;;;;7.47;6.05;;;;;;;12.78;100.00;100145.31;5035511;28;20029;-94
2023/10/24 08:28:47;;;;;;;8.43;5.90;;;;;;;12.85;100.00;100151.41;5022210;28;20044;-93
2023/10/24 08:31:13;;;;;;;8.77;6.07;;;;;;;13.18;100.00;100158.16;5037399;28;20061;-95
2023/10/24 08:33:38;;;;;;;7.82;5.82;;;;;;;13.30;100.00;100152.75;5036206;28;20504;-94
2023/10/24 08:36:03;;;;;;;8.55;5.60;;;;;;;13.38;99.07;100164.16;5035681;28;20059;-93
2023/10/24 08:38:29;;;;;;;6.75;4.97;;;;;;;13.25;98.52;100166.06;5034178;28;20033;-92
2023/10/24 08:40:54;;;;;;;10.02;5.22;;;;;;;13.25;99.62;100187.31;5035921;28;20030;-94
2023/10/24 08:43:21;;;;;;;10.00;4.80;;;;;;;13.30;98.24;100181.94;5038208;28;20037;-93
2023/10/24 08:45:49;;;;;;;6.78;4.63;;;;;;;13.25;98.08;100187.31;5038715;28;20040;-90
2023/10/24 08:48:17;;;;;;;9.05;4.30;;;;;;;13.14;97.29;100164.41;5036128;28;20022;-96
2023/10/24 08:50:43;;;;;;;8.15;4.50;;;;;;;13.31;95.74;100177.50;5034326;28;20101;-92
2023/10/24 08:53:11;;;;;;;6.30;4.40;;;;;;;13.15;95.86;100182.97;5036191;28;20102;-90
2023/10/24 08:55:40;;;;;;;6.80;4.30;;;;;;;13.01;97.83;100177.78;5033404;28;20028;-89
2023/10/24 08:58:07;;;;;;;8.10;4.80;;;;;;;12.91;98.30;100164.63;5037721;28;20029;-90
2023/10/24 09:00:33;;;;;;;7.07;4.70;;;;;;;12.93;98.62;100174.34;5033521;28;20466;-92
2023/10/24 09:03:00;;;;;;;12.23;5.50;;;;;;;12.81;99.05;100177.13;5035120;28;20040;-92
2023/10/24 09:05:27;;;;;;;11.63;5.80;;;;;;;12.80;99.11;100196.53;5034909;28;20030;-91
2023/10/24 09:08:02;;;;;;;8.43;5.78;;;;;;;12.71;99.90;100183.38;5034339;28;20393;-88
2023/10/24 09:10:36;;;;;;;9.85;6.15;;;;;;;12.70;99.63;100165.72;5004114;28;20099;-88
2023/10/24 09:13:10;;;;;;;7.80;5.68;;;;;;;12.60;100.00;100149.03;5033591;28;20030;-90
2023/10/24 09:15:41;;;;;;;10.10;7.07;;;;;;;12.52;100.00;100125.22;5034645;28;20406;-91
2023/10/24 09:18:14;;;;;;;10.30;6.88;;;;;;;12.66;100.00;100129.53;5033412;28;20125;-87
2023/10/24 09:20:45;;;;;;;8.90;6.72;;;;;;;12.85;100.00;100156.72;5033277;28;20051;-89
2023/10/24 09:23:23;;;;;;;8.88;6.50;;;;;;;12.83;100.00;100145.28;5034800;28;20474;-88
2023/10/24 09:26:11;;;;;;;11.18;6.10;;;;;;;12.72;100.00;100124.19;5017458;28;20034;-88
2023/10/24 09:28:38;;;;;;;9.98;6.95;;;;;;;12.97;100.00;100160.13;5039935;28;20089;-93
2023/10/24 09:31:07;;;;;;;9.65;6.57;;;;;;;12.71;99.53;100110.03;5041503;28;20108;-94
2023/10/24 09:33:42;;;;;;;11.38;6.85;;;;;;;12.70;100.00;100100.31;5034966;28;20049;-96
2023/10/24 09:36:10;;;;;;;10.32;6.63;;;;;;;13.07;100.00;100147.69;5038572;28;20469;-95
2023/10/24 09:38:42;;;;;;;9.15;6.18;;;;;;;13.20;100.00;100143.13;5033628;28;20527;-90
2023/10/24 09:41:08;;;;;;;9.05;6.35;;;;;;;13.15;100.00;100103.38;5035384;28;20044;-94
2023/10/24 09:43:38;;;;;;;8.93;6.97;;;;;;;13.39;98.87;100104.00;5032624;28;20436;-88
2023/10/24 09:46:06;;;;;;;10.13;6.65;;;;;;;13.64;97.44;100133.75;5033790;28;20026;-88
2023/10/24 09:48:33;;;;;;;10.75;6.68;;;;;;;13.77;96.06;100143.31;5016204;28;20089;-86
2023/10/24 09:51:00;;;;;;;9.45;5.93;;;;;;;13.70;95.58;100142.53;5034247;28;20154;-88
2023/10/24 09:53:26;;;;;;;8.65;6.35;;;;;;;13.47;97.48;100110.97;5034862;28;20103;-88
2023/10/24 09:55:56;;;;;;;10.13;6.40;;;;;;;13.54;98.09;100140.97;5018760;28;20065;-87
2023/10/24 09:58:24;;;;;;;9.68;6.40;;;;;;;13.48;97.60;100135.72;5014381;28;20051;-90
2023/10/24 10:00:50;;;;;;;8.45;5.80;;;;;;;13.47;98.53;100126.03;5030543;28;20401;-88
2023/10/24 10:03:15;;;;;;;7.57;5.43;;;;;;;13.39;98.02;100134.06;5033234;28;20041;-92
2023/10/24 10:05:43;;;;;;;8.30;5.30;;;;;;;13.24;98.00;100116.56;5049857;28;20047;-93
2023/10/24 10:08:08;;;;;;;9.82;5.50;;;;;;;13.26;98.49;100119.19;5032864;28;20029;-93
2023/10/24 10:10:36;;;;;;;8.05;5.32;;;;;;;13.28;98.62;100134.22;5041979;28;20033;-92
2023/10/24 10:13:05;;;;;;;7.53;5.40;;;;;;;13.28;98.49;100144.81;5033531;28;20095;-90
2023/10/24 10:15:51;;;;;;;8.82;5.18;;;;;;;13.21;98.83;100147.53;5033255;28;20500;-90
2023/10/24 10:18:34;;;;;;;7.80;4.95;;;;;;;13.06;98.87;100131.75;5034196;28;20156;-91
2023/10/24 10:21:16;;;;;;;8.65;5.15;;;;;;;13.17;99.85;100138.72;5034326;28;20185;-95
2023/10/24 10:24:19;;;;;;;8.48;5.10;;;;;;;13.21;99.97;100159.00;5034506;28;20057;-94
2023/10/24 10:26:59;;;;;;;7.72;5.10;;;;;;;13.21;100.00;100155.47;5034270;28;20029;-95
2023/10/24 10:29:27;;;;;;;8.70;4.90;;;;;;;13.16;100.00;100155.53;5033157;28;20389;-95
2023/10/24 10:32:05;;;;;;;6.90;4.85;;;;;;;13.13;100.00;100152.03;5031124;28;20029;-94
2023/10/24 10:34:36;;;;;;;7.82;5.30;;;;;;;13.11;100.00;100156.50;5035123;28;20060;-94
2023/10/24 10:37:01;;;;;;;6.93;4.50;;;;;;;12.97;100.00;100125.66;5034253;28;20025;-94
2023/10/24 10:39:27;;;;;;;6.72;4.10;;;;;;;13.09;100.00;100143.22;5031494;28;20043;-92
2023/10/24 10:41:57;;;;;;;6.72;4.20;;;;;;;13.08;100.00;100130.00;5015090;28;20060;-90
2023/10/24 10:44:40;;;;;;;6.43;4.47;;;;;;;13.01;100.00;100121.22;5016764;28;20076;-96
2023/10/24 10:47:07;;;;;;;9.07;4.53;;;;;;;12.86;100.00;100109.00;5035394;28;20104;-95
2023/10/24 10:49:54;;;;;;;;;;;;;;;;;;;;;
2023/10/24 10:52:53;;;;;;;8.15;4.60;;;;;;;12.99;100.00;100136.28;5032737;28;20037;-94
2023/10/24 10:55:43;;;;;;;;;;;;;;;;;;;;;
2023/10/24 10:58:19;;;;;;;9.00;4.43;;;;;;;12.93;100.00;100129.28;5033883;28;20104;-93
2023/10/24 11:01:00;;;;;;;6.65;4.30;;;;;;;12.53;100.00;100065.16;5032289;28;20079;-94
2023/10/24 11:03:59;;;;;;;6.53;4.15;;;;;;;12.77;100.00;100109.09;5032247;28;20038;-95
2023/10/24 11:06:38;;;;;;;;;;;;;;;;;;;;;
2023/10/24 11:09:08;;;;;;;7.53;5.03;;;;;;;12.76;100.00;100131.19;5033274;28;20029;-92
2023/10/24 11:11:34;;;;;;;8.13;4.65;;;;;;;12.38;100.00;100073.25;5032703;28;20025;-92
2023/10/24 11:14:21;;;;;;;9.13;4.95;;;;;;;12.65;100.00;100119.81;5038431;28;20377;-90
2023/10/24 11:19:40;;;;;;;8.68;4.95;;;;;;;12.39;100.00;100107.69;5037106;28;20468;-93
2023/10/24 11:22:18;;;;;;;7.95;5.15;;;;;;;12.07;100.00;100069.97;5040429;28;20033;-92
2023/10/24 11:24:47;;;;;;;7.65;4.53;;;;;;;12.30;100.00;100118.38;5037123;28;20128;-93